sensor_id;sensor_type;location;lat;lon;timestamp;P1;durP1;ratioP1;P2;durP2;ratioP2
50946;SDS011;36955;47.416;7.716;2022-12-10T00:01:26;58.35;;;26.55;;
50946;SDS011;36955;47.416;7.716;2022-12-10T00:03:53;69.22;;;28.17;;
50946;SDS011;36955;47.416;7.716;2022-12-10T00:06:21;90.70;;;33.45;;
50946;SDS011;36955;47.416;7.716;2022-12-10T00:08:48;77.60;;;29.70;;
50946;SDS011;36955;47.416;7.716;2022-12-10T00:11:16;95.22;;;29.88;;
50946;SDS011;36955;47.416;7.716;2022-12-10T00:13:43;169.25;;;31.38;;
50946;SDS011;36955;47.416;7.716;2022-12-10T00:16:11;171.05;;;34.92;;
50946;SDS011;36955;47.416;7.716;2022-12-10T00:18:40;112.18;;;29.85;;
50946;SDS011;36955;47.416;7.716;2022-12-10T00:21:07;145.10;;;30.17;;
50946;SDS011;36955;47.416;7.716;2022-12-10T00:23:35;121.65;;;29.00;;
50946;SDS011;36955;47.416;7.716;2022-12-10T00:26:02;154.48;;;31.02;;
50946;SDS011;36955;47.416;7.716;2022-12-10T00:28:30;85.93;;;27.55;;
50946;SDS011;36955;47.416;7.716;2022-12-10T00:31:01;120.38;;;28.73;;
50946;SDS011;36955;47.416;7.716;2022-12-10T00:33:31;84.75;;;28.75;;
50946;SDS011;36955;47.416;7.716;2022-12-10T00:36:02;58.55;;;26.02;;
50946;SDS011;36955;47.416;7.716;2022-12-10T00:38:32;114.28;;;29.25;;
50946;SDS011;36955;47.416;7.716;2022-12-10T00:40:59;59.15;;;26.85;;
50946;SDS011;36955;47.416;7.716;2022-12-10T00:43:25;50.15;;;25.90;;
50946;SDS011;36955;47.416;7.716;2022-12-10T00:45:52;52.13;;;24.83;;
50946;SDS011;36955;47.416;7.716;2022-12-10T00:48:18;57.50;;;27.08;;
50946;SDS011;36955;47.416;7.716;2022-12-10T00:50:54;60.80;;;26.65;;
50946;SDS011;36955;47.416;7.716;2022-12-10T00:53:30;53.63;;;26.40;;
50946;SDS011;36955;47.416;7.716;2022-12-10T00:55:58;62.15;;;27.92;;
50946;SDS011;36955;47.416;7.716;2022-12-10T00:58:28;123.47;;;30.35;;
50946;SDS011;36955;47.416;7.716;2022-12-10T01:01:05;73.57;;;27.20;;
50946;SDS011;36955;47.416;7.716;2022-12-10T01:03:43;67.28;;;27.65;;
50946;SDS011;36955;47.416;7.716;2022-12-10T01:08:48;63.10;;;27.20;;
50946;SDS011;36955;47.416;7.716;2022-12-10T01:11:16;96.72;;;30.30;;
50946;SDS011;36955;47.416;7.716;2022-12-10T01:13:44;82.22;;;24.67;;
50946;SDS011;36955;47.416;7.716;2022-12-10T01:16:11;66.85;;;25.50;;
50946;SDS011;36955;47.416;7.716;2022-12-10T01:18:39;67.05;;;27.73;;
50946;SDS011;36955;47.416;7.716;2022-12-10T01:21:13;54.50;;;25.27;;
50946;SDS011;36955;47.416;7.716;2022-12-10T01:23:42;63.10;;;25.88;;
50946;SDS011;36955;47.416;7.716;2022-12-10T01:26:10;66.28;;;27.58;;
50946;SDS011;36955;47.416;7.716;2022-12-10T01:28:41;67.10;;;26.38;;
50946;SDS011;36955;47.416;7.716;2022-12-10T01:31:09;63.28;;;26.38;;
50946;SDS011;36955;47.416;7.716;2022-12-10T01:33:38;62.00;;;26.25;;
50946;SDS011;36955;47.416;7.716;2022-12-10T01:36:06;63.80;;;28.08;;
50946;SDS011;36955;47.416;7.716;2022-12-10T01:38:35;111.53;;;26.73;;
50946;SDS011;36955;47.416;7.716;2022-12-10T01:41:02;58.03;;;24.13;;
50946;SDS011;36955;47.416;7.716;2022-12-10T01:43:47;201.27;;;30.88;;
50946;SDS011;36955;47.416;7.716;2022-12-10T01:46:14;75.35;;;27.27;;
50946;SDS011;36955;47.416;7.716;2022-12-10T01:48:40;66.32;;;27.73;;
50946;SDS011;36955;47.416;7.716;2022-12-10T01:51:06;63.90;;;28.17;;
50946;SDS011;36955;47.416;7.716;2022-12-10T01:53:33;67.45;;;28.10;;
50946;SDS011;36955;47.416;7.716;2022-12-10T01:55:59;72.35;;;29.35;;
50946;SDS011;36955;47.416;7.716;2022-12-10T01:58:25;65.35;;;27.48;;
50946;SDS011;36955;47.416;7.716;2022-12-10T02:00:55;62.47;;;26.20;;
50946;SDS011;36955;47.416;7.716;2022-12-10T02:06:15;63.67;;;24.63;;
50946;SDS011;36955;47.416;7.716;2022-12-10T02:08:50;59.65;;;22.95;;
50946;SDS011;36955;47.416;7.716;2022-12-10T02:11:29;65.78;;;27.27;;
50946;SDS011;36955;47.416;7.716;2022-12-10T02:14:17;61.67;;;23.48;;
50946;SDS011;36955;47.416;7.716;2022-12-10T02:17:12;62.05;;;23.90;;
50946;SDS011;36955;47.416;7.716;2022-12-10T02:19:55;59.25;;;24.35;;
50946;SDS011;36955;47.416;7.716;2022-12-10T02:22:31;60.13;;;23.08;;
50946;SDS011;36955;47.416;7.716;2022-12-10T02:25:06;61.03;;;24.33;;
50946;SDS011;36955;47.416;7.716;2022-12-10T02:27:37;58.45;;;24.65;;
50946;SDS011;36955;47.416;7.716;2022-12-10T02:30:20;56.45;;;23.77;;
50946;SDS011;36955;47.416;7.716;2022-12-10T02:32:46;56.78;;;23.67;;
50946;SDS011;36955;47.416;7.716;2022-12-10T02:35:25;50.13;;;23.42;;
50946;SDS011;36955;47.416;7.716;2022-12-10T02:38:07;48.40;;;22.73;;
50946;SDS011;36955;47.416;7.716;2022-12-10T02:40:38;50.75;;;22.15;;
50946;SDS011;36955;47.416;7.716;2022-12-10T02:43:10;49.45;;;21.52;;
50946;SDS011;36955;47.416;7.716;2022-12-10T02:45:39;44.95;;;21.60;;
50946;SDS011;36955;47.416;7.716;2022-12-10T02:48:07;44.33;;;21.70;;
50946;SDS011;36955;47.416;7.716;2022-12-10T02:50:34;48.83;;;21.52;;
50946;SDS011;36955;47.416;7.716;2022-12-10T02:53:00;43.15;;;21.23;;
50946;SDS011;36955;47.416;7.716;2022-12-10T02:55:26;43.70;;;21.17;;
50946;SDS011;36955;47.416;7.716;2022-12-10T02:58:12;43.40;;;21.08;;
50946;SDS011;36955;47.416;7.716;2022-12-10T03:00:53;41.35;;;20.67;;
50946;SDS011;36955;47.416;7.716;2022-12-10T03:09:09;33.97;;;17.00;;
50946;SDS011;36955;47.416;7.716;2022-12-10T03:11:42;31.42;;;17.60;;
50946;SDS011;36955;47.416;7.716;2022-12-10T03:17:04;34.20;;;19.02;;
50946;SDS011;36955;47.416;7.716;2022-12-10T03:19:40;31.60;;;17.83;;
50946;SDS011;36955;47.416;7.716;2022-12-10T03:22:13;28.48;;;16.92;;
50946;SDS011;36955;47.416;7.716;2022-12-10T03:24:41;35.72;;;18.30;;
50946;SDS011;36955;47.416;7.716;2022-12-10T03:27:09;32.75;;;18.58;;
50946;SDS011;36955;47.416;7.716;2022-12-10T03:29:38;33.50;;;18.52;;
50946;SDS011;36955;47.416;7.716;2022-12-10T03:32:11;35.03;;;19.35;;
50946;SDS011;36955;47.416;7.716;2022-12-10T03:34:38;34.78;;;19.17;;
50946;SDS011;36955;47.416;7.716;2022-12-10T03:37:04;30.05;;;16.98;;
50946;SDS011;36955;47.416;7.716;2022-12-10T03:39:31;33.78;;;18.15;;
50946;SDS011;36955;47.416;7.716;2022-12-10T03:41:58;33.80;;;18.23;;
50946;SDS011;36955;47.416;7.716;2022-12-10T03:44:31;35.53;;;18.60;;
50946;SDS011;36955;47.416;7.716;2022-12-10T03:46:59;36.83;;;19.63;;
50946;SDS011;36955;47.416;7.716;2022-12-10T03:49:26;34.33;;;18.40;;
50946;SDS011;36955;47.416;7.716;2022-12-10T03:51:52;33.88;;;18.38;;
50946;SDS011;36955;47.416;7.716;2022-12-10T03:54:18;34.95;;;19.98;;
50946;SDS011;36955;47.416;7.716;2022-12-10T03:56:44;36.45;;;19.73;;
50946;SDS011;36955;47.416;7.716;2022-12-10T03:59:10;32.97;;;18.48;;
50946;SDS011;36955;47.416;7.716;2022-12-10T04:01:36;36.65;;;19.73;;
50946;SDS011;36955;47.416;7.716;2022-12-10T04:04:03;35.83;;;19.38;;
50946;SDS011;36955;47.416;7.716;2022-12-10T04:06:30;37.50;;;20.73;;
50946;SDS011;36955;47.416;7.716;2022-12-10T04:08:56;33.22;;;18.27;;
50946;SDS011;36955;47.416;7.716;2022-12-10T04:11:22;35.90;;;19.67;;
50946;SDS011;36955;47.416;7.716;2022-12-10T04:13:48;37.05;;;20.35;;
50946;SDS011;36955;47.416;7.716;2022-12-10T04:16:14;37.10;;;20.30;;
50946;SDS011;36955;47.416;7.716;2022-12-10T04:18:40;39.03;;;20.67;;
50946;SDS011;36955;47.416;7.716;2022-12-10T04:21:06;39.22;;;21.40;;
50946;SDS011;36955;47.416;7.716;2022-12-10T04:23:32;40.47;;;21.20;;
50946;SDS011;36955;47.416;7.716;2022-12-10T04:25:58;41.22;;;21.08;;
50946;SDS011;36955;47.416;7.716;2022-12-10T04:28:24;39.38;;;20.35;;
50946;SDS011;36955;47.416;7.716;2022-12-10T04:30:51;37.90;;;20.00;;
50946;SDS011;36955;47.416;7.716;2022-12-10T04:33:17;41.25;;;21.60;;
50946;SDS011;36955;47.416;7.716;2022-12-10T04:35:43;39.08;;;21.83;;
50946;SDS011;36955;47.416;7.716;2022-12-10T04:38:09;37.80;;;20.55;;
50946;SDS011;36955;47.416;7.716;2022-12-10T04:40:35;40.13;;;20.35;;
50946;SDS011;36955;47.416;7.716;2022-12-10T04:43:01;39.78;;;21.35;;
50946;SDS011;36955;47.416;7.716;2022-12-10T04:45:27;36.88;;;19.73;;
50946;SDS011;36955;47.416;7.716;2022-12-10T04:47:53;42.17;;;22.25;;
50946;SDS011;36955;47.416;7.716;2022-12-10T04:50:19;39.60;;;21.25;;
50946;SDS011;36955;47.416;7.716;2022-12-10T04:52:45;39.85;;;21.65;;
50946;SDS011;36955;47.416;7.716;2022-12-10T04:55:11;44.70;;;21.73;;
50946;SDS011;36955;47.416;7.716;2022-12-10T04:57:37;43.33;;;22.85;;
50946;SDS011;36955;47.416;7.716;2022-12-10T05:00:03;44.55;;;22.08;;
50946;SDS011;36955;47.416;7.716;2022-12-10T05:02:30;41.20;;;22.02;;
50946;SDS011;36955;47.416;7.716;2022-12-10T05:04:56;39.13;;;21.02;;
50946;SDS011;36955;47.416;7.716;2022-12-10T05:07:22;39.70;;;21.65;;
50946;SDS011;36955;47.416;7.716;2022-12-10T05:09:48;41.83;;;21.95;;
50946;SDS011;36955;47.416;7.716;2022-12-10T05:12:14;42.03;;;22.20;;
50946;SDS011;36955;47.416;7.716;2022-12-10T05:14:40;43.30;;;23.80;;
50946;SDS011;36955;47.416;7.716;2022-12-10T05:17:06;43.17;;;22.42;;
50946;SDS011;36955;47.416;7.716;2022-12-10T05:19:32;40.67;;;21.85;;
50946;SDS011;36955;47.416;7.716;2022-12-10T05:21:58;45.70;;;22.05;;
50946;SDS011;36955;47.416;7.716;2022-12-10T05:24:24;42.90;;;22.95;;
50946;SDS011;36955;47.416;7.716;2022-12-10T05:26:50;39.83;;;20.20;;
50946;SDS011;36955;47.416;7.716;2022-12-10T05:29:17;38.85;;;19.83;;
50946;SDS011;36955;47.416;7.716;2022-12-10T05:31:43;39.20;;;21.23;;
50946;SDS011;36955;47.416;7.716;2022-12-10T05:34:09;41.55;;;22.27;;
50946;SDS011;36955;47.416;7.716;2022-12-10T05:36:36;38.80;;;21.90;;
50946;SDS011;36955;47.416;7.716;2022-12-10T05:39:02;40.95;;;22.02;;
50946;SDS011;36955;47.416;7.716;2022-12-10T05:41:30;40.88;;;23.42;;
50946;SDS011;36955;47.416;7.716;2022-12-10T05:43:59;38.30;;;20.00;;
50946;SDS011;36955;47.416;7.716;2022-12-10T05:46:28;39.67;;;22.17;;
50946;SDS011;36955;47.416;7.716;2022-12-10T05:48:56;40.22;;;22.35;;
50946;SDS011;36955;47.416;7.716;2022-12-10T05:51:24;36.47;;;20.40;;
50946;SDS011;36955;47.416;7.716;2022-12-10T05:53:52;42.10;;;22.23;;
50946;SDS011;36955;47.416;7.716;2022-12-10T05:56:20;40.25;;;21.50;;
50946;SDS011;36955;47.416;7.716;2022-12-10T05:58:48;41.90;;;24.38;;
50946;SDS011;36955;47.416;7.716;2022-12-10T06:01:20;39.92;;;21.58;;
50946;SDS011;36955;47.416;7.716;2022-12-10T06:03:48;36.75;;;20.67;;
50946;SDS011;36955;47.416;7.716;2022-12-10T06:06:19;38.65;;;21.10;;
50946;SDS011;36955;47.416;7.716;2022-12-10T06:08:53;37.90;;;20.83;;
50946;SDS011;36955;47.416;7.716;2022-12-10T06:11:20;33.40;;;19.30;;
50946;SDS011;36955;47.416;7.716;2022-12-10T06:13:46;32.88;;;19.25;;
50946;SDS011;36955;47.416;7.716;2022-12-10T06:16:13;31.80;;;18.50;;
50946;SDS011;36955;47.416;7.716;2022-12-10T06:18:40;33.97;;;19.38;;
50946;SDS011;36955;47.416;7.716;2022-12-10T06:21:08;33.22;;;18.38;;
50946;SDS011;36955;47.416;7.716;2022-12-10T06:23:39;35.47;;;20.48;;
50946;SDS011;36955;47.416;7.716;2022-12-10T06:26:12;33.33;;;18.63;;
50946;SDS011;36955;47.416;7.716;2022-12-10T06:28:41;35.20;;;19.73;;
50946;SDS011;36955;47.416;7.716;2022-12-10T06:31:08;34.08;;;18.67;;
50946;SDS011;36955;47.416;7.716;2022-12-10T06:33:35;29.52;;;15.32;;
50946;SDS011;36955;47.416;7.716;2022-12-10T06:36:04;34.33;;;18.38;;
50946;SDS011;36955;47.416;7.716;2022-12-10T06:38:31;35.08;;;19.38;;
50946;SDS011;36955;47.416;7.716;2022-12-10T06:40:58;33.20;;;17.88;;
50946;SDS011;36955;47.416;7.716;2022-12-10T06:43:27;29.95;;;18.30;;
50946;SDS011;36955;47.416;7.716;2022-12-10T06:45:54;29.27;;;16.65;;
50946;SDS011;36955;47.416;7.716;2022-12-10T06:48:20;31.30;;;17.63;;
50946;SDS011;36955;47.416;7.716;2022-12-10T06:50:46;30.45;;;17.67;;
50946;SDS011;36955;47.416;7.716;2022-12-10T06:53:12;30.48;;;17.67;;
50946;SDS011;36955;47.416;7.716;2022-12-10T06:55:38;34.00;;;18.35;;
50946;SDS011;36955;47.416;7.716;2022-12-10T06:58:04;32.75;;;17.55;;
50946;SDS011;36955;47.416;7.716;2022-12-10T07:00:30;37.58;;;21.77;;
50946;SDS011;36955;47.416;7.716;2022-12-10T07:02:57;33.78;;;17.35;;
50946;SDS011;36955;47.416;7.716;2022-12-10T07:05:23;42.38;;;21.20;;
50946;SDS011;36955;47.416;7.716;2022-12-10T07:07:49;38.22;;;20.05;;
50946;SDS011;36955;47.416;7.716;2022-12-10T07:10:15;40.58;;;21.42;;
50946;SDS011;36955;47.416;7.716;2022-12-10T07:12:41;48.38;;;25.40;;
50946;SDS011;36955;47.416;7.716;2022-12-10T07:15:07;41.15;;;21.88;;
50946;SDS011;36955;47.416;7.716;2022-12-10T07:17:34;38.67;;;20.55;;
50946;SDS011;36955;47.416;7.716;2022-12-10T07:20:00;39.15;;;20.27;;
50946;SDS011;36955;47.416;7.716;2022-12-10T07:22:26;39.88;;;21.00;;
50946;SDS011;36955;47.416;7.716;2022-12-10T07:24:52;43.20;;;22.02;;
50946;SDS011;36955;47.416;7.716;2022-12-10T07:27:18;42.55;;;20.88;;
50946;SDS011;36955;47.416;7.716;2022-12-10T07:29:44;42.00;;;22.77;;
50946;SDS011;36955;47.416;7.716;2022-12-10T07:32:10;42.55;;;23.35;;
50946;SDS011;36955;47.416;7.716;2022-12-10T07:34:36;34.25;;;17.92;;
50946;SDS011;36955;47.416;7.716;2022-12-10T07:37:02;37.38;;;20.42;;
50946;SDS011;36955;47.416;7.716;2022-12-10T07:39:28;35.05;;;19.55;;
50946;SDS011;36955;47.416;7.716;2022-12-10T07:41:55;42.60;;;22.80;;
50946;SDS011;36955;47.416;7.716;2022-12-10T07:44:24;43.17;;;22.98;;
50946;SDS011;36955;47.416;7.716;2022-12-10T07:46:52;36.13;;;19.92;;
50946;SDS011;36955;47.416;7.716;2022-12-10T07:49:19;47.78;;;22.73;;
50946;SDS011;36955;47.416;7.716;2022-12-10T07:51:48;38.92;;;21.05;;
50946;SDS011;36955;47.416;7.716;2022-12-10T07:54:15;37.38;;;21.02;;
50946;SDS011;36955;47.416;7.716;2022-12-10T07:56:42;33.08;;;18.33;;
50946;SDS011;36955;47.416;7.716;2022-12-10T07:59:08;40.13;;;21.60;;
50946;SDS011;36955;47.416;7.716;2022-12-10T08:01:35;31.40;;;17.98;;
50946;SDS011;36955;47.416;7.716;2022-12-10T08:04:01;32.03;;;19.02;;
50946;SDS011;36955;47.416;7.716;2022-12-10T08:06:28;30.50;;;17.20;;
50946;SDS011;36955;47.416;7.716;2022-12-10T08:08:54;33.97;;;17.77;;
50946;SDS011;36955;47.416;7.716;2022-12-10T08:11:22;45.47;;;24.40;;
50946;SDS011;36955;47.416;7.716;2022-12-10T08:13:49;49.25;;;26.05;;
50946;SDS011;36955;47.416;7.716;2022-12-10T08:16:16;42.05;;;22.02;;
50946;SDS011;36955;47.416;7.716;2022-12-10T08:18:44;42.80;;;21.05;;
50946;SDS011;36955;47.416;7.716;2022-12-10T08:21:15;57.10;;;29.33;;
50946;SDS011;36955;47.416;7.716;2022-12-10T08:23:43;34.38;;;18.63;;
50946;SDS011;36955;47.416;7.716;2022-12-10T08:26:11;48.63;;;23.88;;
50946;SDS011;36955;47.416;7.716;2022-12-10T08:28:41;36.53;;;19.73;;
50946;SDS011;36955;47.416;7.716;2022-12-10T08:31:08;53.13;;;27.00;;
50946;SDS011;36955;47.416;7.716;2022-12-10T08:33:36;52.47;;;26.50;;
50946;SDS011;36955;47.416;7.716;2022-12-10T08:36:03;64.03;;;34.55;;
50946;SDS011;36955;47.416;7.716;2022-12-10T08:38:30;37.30;;;19.35;;
50946;SDS011;36955;47.416;7.716;2022-12-10T08:40:57;42.47;;;20.35;;
50946;SDS011;36955;47.416;7.716;2022-12-10T08:43:23;38.97;;;16.92;;
50946;SDS011;36955;47.416;7.716;2022-12-10T08:45:49;43.83;;;21.05;;
50946;SDS011;36955;47.416;7.716;2022-12-10T08:48:15;41.63;;;20.77;;
50946;SDS011;36955;47.416;7.716;2022-12-10T08:50:42;55.60;;;26.98;;
50946;SDS011;36955;47.416;7.716;2022-12-10T08:53:08;49.50;;;21.65;;
50946;SDS011;36955;47.416;7.716;2022-12-10T08:55:37;49.33;;;23.77;;
50946;SDS011;36955;47.416;7.716;2022-12-10T08:58:04;42.55;;;19.50;;
50946;SDS011;36955;47.416;7.716;2022-12-10T09:00:30;45.38;;;21.20;;
50946;SDS011;36955;47.416;7.716;2022-12-10T09:02:56;47.58;;;21.52;;
50946;SDS011;36955;47.416;7.716;2022-12-10T09:05:22;47.95;;;20.95;;
50946;SDS011;36955;47.416;7.716;2022-12-10T09:07:48;42.78;;;20.27;;
50946;SDS011;36955;47.416;7.716;2022-12-10T09:10:14;47.25;;;21.88;;
50946;SDS011;36955;47.416;7.716;2022-12-10T09:12:40;59.97;;;22.60;;
50946;SDS011;36955;47.416;7.716;2022-12-10T09:15:08;51.85;;;23.17;;
50946;SDS011;36955;47.416;7.716;2022-12-10T09:17:35;58.35;;;22.67;;
50946;SDS011;36955;47.416;7.716;2022-12-10T09:20:01;56.70;;;22.58;;
50946;SDS011;36955;47.416;7.716;2022-12-10T09:22:28;88.22;;;24.38;;
50946;SDS011;36955;47.416;7.716;2022-12-10T09:24:54;140.88;;;27.63;;
50946;SDS011;36955;47.416;7.716;2022-12-10T09:27:20;96.75;;;25.92;;
50946;SDS011;36955;47.416;7.716;2022-12-10T09:29:46;142.45;;;28.25;;
50946;SDS011;36955;47.416;7.716;2022-12-10T09:32:12;156.18;;;27.70;;
50946;SDS011;36955;47.416;7.716;2022-12-10T09:34:38;127.07;;;26.52;;
50946;SDS011;36955;47.416;7.716;2022-12-10T09:37:04;129.80;;;26.85;;
50946;SDS011;36955;47.416;7.716;2022-12-10T09:39:30;84.95;;;26.65;;
50946;SDS011;36955;47.416;7.716;2022-12-10T09:42:03;82.18;;;26.45;;
50946;SDS011;36955;47.416;7.716;2022-12-10T09:47:18;70.68;;;26.17;;
50946;SDS011;36955;47.416;7.716;2022-12-10T09:52:29;71.78;;;28.98;;
50946;SDS011;36955;47.416;7.716;2022-12-10T09:55:08;68.30;;;28.70;;
50946;SDS011;36955;47.416;7.716;2022-12-10T09:57:43;70.72;;;28.83;;
50946;SDS011;36955;47.416;7.716;2022-12-10T10:02:46;68.03;;;26.73;;
50946;SDS011;36955;47.416;7.716;2022-12-10T10:05:16;71.47;;;26.90;;
50946;SDS011;36955;47.416;7.716;2022-12-10T10:07:53;65.20;;;26.38;;
50946;SDS011;36955;47.416;7.716;2022-12-10T10:10:27;55.78;;;24.40;;
50946;SDS011;36955;47.416;7.716;2022-12-10T10:13:09;58.60;;;25.95;;
50946;SDS011;36955;47.416;7.716;2022-12-10T10:15:43;59.85;;;25.25;;
50946;SDS011;36955;47.416;7.716;2022-12-10T10:21:00;52.45;;;23.65;;
50946;SDS011;36955;47.416;7.716;2022-12-10T10:23:26;58.38;;;25.52;;
50946;SDS011;36955;47.416;7.716;2022-12-10T10:25:53;45.10;;;22.23;;
50946;SDS011;36955;47.416;7.716;2022-12-10T10:28:20;55.90;;;24.27;;
50946;SDS011;36955;47.416;7.716;2022-12-10T10:30:48;46.20;;;20.02;;
50946;SDS011;36955;47.416;7.716;2022-12-10T10:33:15;66.60;;;31.52;;
50946;SDS011;36955;47.416;7.716;2022-12-10T10:35:46;58.15;;;27.27;;
50946;SDS011;36955;47.416;7.716;2022-12-10T10:38:18;44.08;;;22.50;;
50946;SDS011;36955;47.416;7.716;2022-12-10T10:40:49;56.22;;;25.65;;
50946;SDS011;36955;47.416;7.716;2022-12-10T10:43:22;45.72;;;21.05;;
50946;SDS011;36955;47.416;7.716;2022-12-10T10:45:51;48.63;;;21.75;;
50946;SDS011;36955;47.416;7.716;2022-12-10T10:48:22;43.13;;;20.70;;
50946;SDS011;36955;47.416;7.716;2022-12-10T10:51:15;42.97;;;20.92;;
50946;SDS011;36955;47.416;7.716;2022-12-10T10:53:49;37.00;;;17.42;;
50946;SDS011;36955;47.416;7.716;2022-12-10T10:56:22;34.45;;;17.33;;
50946;SDS011;36955;47.416;7.716;2022-12-10T10:58:55;36.90;;;18.88;;
50946;SDS011;36955;47.416;7.716;2022-12-10T11:01:47;39.40;;;18.75;;
50946;SDS011;36955;47.416;7.716;2022-12-10T11:07:00;48.28;;;24.42;;
50946;SDS011;36955;47.416;7.716;2022-12-10T11:09:29;34.38;;;16.50;;
50946;SDS011;36955;47.416;7.716;2022-12-10T11:12:02;34.80;;;16.73;;
50946;SDS011;36955;47.416;7.716;2022-12-10T11:17:08;38.60;;;18.92;;
50946;SDS011;36955;47.416;7.716;2022-12-10T11:19:57;36.38;;;17.92;;
50946;SDS011;36955;47.416;7.716;2022-12-10T11:22:38;34.67;;;17.55;;
50946;SDS011;36955;47.416;7.716;2022-12-10T11:25:15;35.70;;;17.52;;
50946;SDS011;36955;47.416;7.716;2022-12-10T11:30:23;37.72;;;18.90;;
50946;SDS011;36955;47.416;7.716;2022-12-10T11:32:58;37.42;;;18.73;;
50946;SDS011;36955;47.416;7.716;2022-12-10T11:38:30;37.00;;;18.60;;
50946;SDS011;36955;47.416;7.716;2022-12-10T11:49:39;39.72;;;19.25;;
50946;SDS011;36955;47.416;7.716;2022-12-10T12:14:26;48.83;;;23.08;;
50946;SDS011;36955;47.416;7.716;2022-12-10T12:17:20;46.80;;;20.80;;
50946;SDS011;36955;47.416;7.716;2022-12-10T12:20:18;43.42;;;20.90;;
50946;SDS011;36955;47.416;7.716;2022-12-10T12:23:43;44.55;;;20.40;;
50946;SDS011;36955;47.416;7.716;2022-12-10T12:25:54;43.38;;;19.95;;
50946;SDS011;36955;47.416;7.716;2022-12-10T12:28:30;40.05;;;19.13;;
50946;SDS011;36955;47.416;7.716;2022-12-10T12:31:05;39.60;;;19.10;;
50946;SDS011;36955;47.416;7.716;2022-12-10T12:38:48;38.45;;;18.73;;
50946;SDS011;36955;47.416;7.716;2022-12-10T12:41:40;38.25;;;19.42;;
50946;SDS011;36955;47.416;7.716;2022-12-10T12:53:00;41.17;;;19.92;;
50946;SDS011;36955;47.416;7.716;2022-12-10T12:55:43;37.55;;;18.80;;
50946;SDS011;36955;47.416;7.716;2022-12-10T13:00:48;36.45;;;18.13;;
50946;SDS011;36955;47.416;7.716;2022-12-10T13:03:29;34.08;;;17.77;;
50946;SDS011;36955;47.416;7.716;2022-12-10T13:06:13;36.17;;;18.75;;
50946;SDS011;36955;47.416;7.716;2022-12-10T13:09:33;36.72;;;19.27;;
50946;SDS011;36955;47.416;7.716;2022-12-10T13:11:36;39.40;;;19.10;;
50946;SDS011;36955;47.416;7.716;2022-12-10T13:19:24;43.47;;;21.23;;
50946;SDS011;36955;47.416;7.716;2022-12-10T13:24:59;39.00;;;19.80;;
50946;SDS011;36955;47.416;7.716;2022-12-10T13:27:53;38.97;;;19.48;;
50946;SDS011;36955;47.416;7.716;2022-12-10T13:30:33;42.70;;;21.33;;
50946;SDS011;36955;47.416;7.716;2022-12-10T13:33:19;42.17;;;20.00;;
50946;SDS011;36955;47.416;7.716;2022-12-10T13:35:49;45.78;;;22.70;;
50946;SDS011;36955;47.416;7.716;2022-12-10T13:38:22;38.60;;;19.20;;
50946;SDS011;36955;47.416;7.716;2022-12-10T13:41:03;46.50;;;22.25;;
50946;SDS011;36955;47.416;7.716;2022-12-10T13:48:53;44.28;;;20.42;;
50946;SDS011;36955;47.416;7.716;2022-12-10T13:51:26;46.85;;;21.38;;
50946;SDS011;36955;47.416;7.716;2022-12-10T13:57:34;45.03;;;21.33;;
50946;SDS011;36955;47.416;7.716;2022-12-10T14:00:22;43.83;;;19.25;;
50946;SDS011;36955;47.416;7.716;2022-12-10T14:08:28;41.85;;;20.63;;
50946;SDS011;36955;47.416;7.716;2022-12-10T14:10:57;46.60;;;21.85;;
50946;SDS011;36955;47.416;7.716;2022-12-10T14:13:28;43.20;;;21.63;;
50946;SDS011;36955;47.416;7.716;2022-12-10T14:16:09;47.05;;;22.10;;
50946;SDS011;36955;47.416;7.716;2022-12-10T14:18:37;43.25;;;20.85;;
50946;SDS011;36955;47.416;7.716;2022-12-10T14:21:06;46.17;;;22.38;;
50946;SDS011;36955;47.416;7.716;2022-12-10T14:23:33;47.05;;;22.58;;
50946;SDS011;36955;47.416;7.716;2022-12-10T14:26:20;43.78;;;22.50;;
50946;SDS011;36955;47.416;7.716;2022-12-10T14:28:54;44.95;;;21.27;;
50946;SDS011;36955;47.416;7.716;2022-12-10T14:31:45;45.13;;;21.30;;
50946;SDS011;36955;47.416;7.716;2022-12-10T14:34:17;44.10;;;21.23;;
50946;SDS011;36955;47.416;7.716;2022-12-10T14:36:51;53.60;;;23.85;;
50946;SDS011;36955;47.416;7.716;2022-12-10T14:41:47;42.22;;;21.63;;
50946;SDS011;36955;47.416;7.716;2022-12-10T14:44:16;44.70;;;20.52;;
50946;SDS011;36955;47.416;7.716;2022-12-10T14:46:43;43.20;;;22.73;;
50946;SDS011;36955;47.416;7.716;2022-12-10T14:49:45;44.03;;;22.42;;
50946;SDS011;36955;47.416;7.716;2022-12-10T14:52:09;44.30;;;21.77;;
50946;SDS011;36955;47.416;7.716;2022-12-10T14:54:38;42.75;;;21.50;;
50946;SDS011;36955;47.416;7.716;2022-12-10T14:57:05;44.92;;;22.73;;
50946;SDS011;36955;47.416;7.716;2022-12-10T15:00:05;41.72;;;21.75;;
50946;SDS011;36955;47.416;7.716;2022-12-10T15:02:39;43.50;;;22.05;;
50946;SDS011;36955;47.416;7.716;2022-12-10T15:05:11;42.03;;;21.38;;
50946;SDS011;36955;47.416;7.716;2022-12-10T15:07:40;37.42;;;20.05;;
50946;SDS011;36955;47.416;7.716;2022-12-10T15:10:10;39.95;;;19.70;;
50946;SDS011;36955;47.416;7.716;2022-12-10T15:12:44;38.47;;;18.98;;
50946;SDS011;36955;47.416;7.716;2022-12-10T15:17:57;41.45;;;19.92;;
50946;SDS011;36955;47.416;7.716;2022-12-10T15:20:26;37.35;;;18.60;;
50946;SDS011;36955;47.416;7.716;2022-12-10T15:26:03;34.20;;;17.98;;
50946;SDS011;36955;47.416;7.716;2022-12-10T15:28:45;40.25;;;21.95;;
50946;SDS011;36955;47.416;7.716;2022-12-10T15:31:28;36.78;;;19.48;;
50946;SDS011;36955;47.416;7.716;2022-12-10T15:33:57;49.65;;;24.33;;
50946;SDS011;36955;47.416;7.716;2022-12-10T15:36:37;40.88;;;21.05;;
50946;SDS011;36955;47.416;7.716;2022-12-10T15:39:25;40.27;;;21.37;;
50946;SDS011;36955;47.416;7.716;2022-12-10T15:41:55;35.70;;;18.77;;
50946;SDS011;36955;47.416;7.716;2022-12-10T15:49:28;33.22;;;17.70;;
50946;SDS011;36955;47.416;7.716;2022-12-10T15:51:55;38.33;;;19.63;;
50946;SDS011;36955;47.416;7.716;2022-12-10T15:54:23;41.58;;;21.60;;
50946;SDS011;36955;47.416;7.716;2022-12-10T15:56:55;43.08;;;23.30;;
50946;SDS011;36955;47.416;7.716;2022-12-10T15:59:21;36.42;;;19.83;;
50946;SDS011;36955;47.416;7.716;2022-12-10T16:01:47;45.75;;;24.83;;
50946;SDS011;36955;47.416;7.716;2022-12-10T16:04:13;49.35;;;27.38;;
50946;SDS011;36955;47.416;7.716;2022-12-10T16:06:39;39.53;;;20.48;;
50946;SDS011;36955;47.416;7.716;2022-12-10T16:09:06;44.47;;;23.15;;
50946;SDS011;36955;47.416;7.716;2022-12-10T16:11:33;41.95;;;21.40;;
50946;SDS011;36955;47.416;7.716;2022-12-10T16:13:59;39.03;;;19.63;;
50946;SDS011;36955;47.416;7.716;2022-12-10T16:16:25;36.80;;;19.95;;
50946;SDS011;36955;47.416;7.716;2022-12-10T16:18:51;39.88;;;20.45;;
50946;SDS011;36955;47.416;7.716;2022-12-10T16:21:17;39.53;;;19.63;;
50946;SDS011;36955;47.416;7.716;2022-12-10T16:23:43;36.78;;;19.70;;
50946;SDS011;36955;47.416;7.716;2022-12-10T16:26:17;45.38;;;22.15;;
50946;SDS011;36955;47.416;7.716;2022-12-10T16:28:44;39.90;;;21.75;;
50946;SDS011;36955;47.416;7.716;2022-12-10T16:31:12;40.58;;;20.83;;
50946;SDS011;36955;47.416;7.716;2022-12-10T16:33:41;37.22;;;19.77;;
50946;SDS011;36955;47.416;7.716;2022-12-10T16:36:09;40.65;;;19.95;;
50946;SDS011;36955;47.416;7.716;2022-12-10T16:38:36;39.65;;;20.00;;